Minot, ND (58701)

5:03 AM CST on February 22, 2017 (GMT -0600)
Edgeview Estates | | Change Station
Active Advisory: Special Statement

Elev 1752 ft 48.21 °N, 101.33 °W | Updated 11 seconds ago

Light Snow
Light Snow Mist
31.4 °F
Feels Like 27 °F
N
4.0
Wind Variable Wind from ESE
Gusts 6.0 mph

Today
High -- | Low -- °F
--% Chance of Precip.
Yesterday
High -- | Low -- °F
Precip. -- in
Pressure 29.78 in
Visibility 3.0 miles
Clouds Overcast 1000 ft
Windchill 27 °F
Dew Point 28 °F
Humidity 88%
Rainfall 0.00 in
Snow Depth Not available.
7:38 AM 6:18 PM
Waning Crescent, 18% visible
METAR KMOT 221054Z AUTO 34011KT 3SM -SN BR OVC010 01/M01 A2974 RMK AO2 SLP085 P0000 T00061011
Pressure 29.78 in
Visibility 3.0 miles
Clouds Overcast 1000 ft
Windchill 27 °F
Dew Point 28 °F
Humidity 88%
Rainfall 0.00 in
Snow Depth Not available.
7:38 AM 6:18 PM
Waning Crescent, 18% visible
METAR KMOT 221054Z AUTO 34011KT 3SM -SN BR OVC010 01/M01 A2974 RMK AO2 SLP085 P0000 T00061011

Get Your Daily Forecast Email!

Thanks for signing up!

Be on the lookout for a verification email in your inbox.

You'll start receiving the daily forecast at 8 AM.

×

10-Day Weather Forecast

Almanac

Astronomy

Feb. 22, 2017 Rise Set
Actual Time
Civil Twilight
Nautical Twilight
Astronomical Twilight
Moon
Length of Visible Light
Length of Day
Tomorrow will be .
, % of the Moon is Illuminated

Today's Extremes

State Highs State Lows

Community

WunderPhotos

Upload Photos

1,962,540 photos uploaded!

WunderBlog® & News

Nearby

Air Quality

  Air Quality AQ Index Pollutant
Not available.

Snow Depth

Station Depth Elevation

Earthquake Activity

City Distance Mag. Time & Date
Minimum magnitude displayed is 2.5.

Coastal Water Temperatures

Place Temperature

Stations

Nearby Weather Stations

Station Location Temp. Windchill Dew Point Humidity Wind Precip. Elev Updated Type
                   

Watches & Warnings

Special Statement
Issued: 3:02 PM MST Feb. 21, 2017 – National Weather Service

... A return to winter begins tonight...

Our unseasonably mild temperatures will come to an end after today
as we transition to more normal wintertime temperatures. Rain is
expected to spread across the region this evening, then transition
to snow late tonight and Wednesday from north to south. There may
be a period of mixed precipitation during this transition. By
Wednesday afternoon, snow totals are expected to range from 1 to
2 inches from Highway 2 south to Interstate 94. Some locally
higher amounts to 3 inches are possible, mainly from Watford City,
to around Minot and Rugby. Snow will taper to less than a half
inch as you go south of Interstate 94 to the South Dakota border.
Motorists should use caution as travel may be hazardous at times
due to slippery roads.

More normal wintertime temperatures will remain over the area
through early next week. Highs are expected to be only in the 20s
to lower 30s with morning lows in the upper single digits and
teens.

Twh